createdAt,value
2018-11-28T00:00:02.030Z,99779.22
2018-11-28T00:02:35.039Z,99780.48
2018-11-28T00:05:10.003Z,99616.03
2018-11-28T00:07:55.623Z,99783.94
2018-11-28T00:10:32.592Z,99774.86
2018-11-28T00:13:11.078Z,99782.64
2018-11-28T00:15:42.019Z,99787.44
2018-11-28T00:18:13.955Z,99793.44
2018-11-28T00:20:51.088Z,99792.98
2018-11-28T00:23:22.077Z,99796.39
2018-11-28T00:25:58.704Z,99801.67
2018-11-28T00:28:25.313Z,99808.12
2018-11-28T00:31:01.027Z,99806.38
2018-11-28T00:33:34.164Z,99811.97
2018-11-28T00:36:07.167Z,99818.45
2018-11-28T00:38:38.142Z,99807.64
2018-11-28T00:41:10.202Z,99820.58
2018-11-28T00:43:43.822Z,99816.72
2018-11-28T00:46:15.483Z,99818.85
2018-11-28T00:48:46.424Z,99820.53
2018-11-28T00:51:18.472Z,99824.88
2018-11-28T00:53:53.911Z,99838.20
2018-11-28T00:56:25.355Z,99822.72
2018-11-28T00:58:57.125Z,99825.68
2018-11-28T01:01:28.160Z,99832.55
2018-11-28T01:04:00.386Z,99830.81
2018-11-28T01:06:31.178Z,99842.43
2018-11-28T01:09:04.263Z,99852.75
2018-11-28T01:11:36.084Z,99846.70
2018-11-28T01:14:07.392Z,99849.66
2018-11-28T01:16:38.091Z,99857.00
2018-11-28T01:19:08.670Z,99855.30
2018-11-28T01:21:39.471Z,99861.39
2018-11-28T01:24:10.239Z,99848.45
2018-11-28T01:26:41.092Z,99856.20
2018-11-28T01:29:11.664Z,99855.84
2018-11-28T01:31:45.047Z,99856.69
2018-11-28T01:34:18.692Z,99860.14
2018-11-28T01:36:54.000Z,99861.45
2018-11-28T01:39:25.405Z,99858.03
2018-11-28T01:41:56.282Z,99861.97
2018-11-28T01:44:36.422Z,99860.18
2018-11-28T01:47:09.470Z,99858.07
2018-11-28T01:49:40.559Z,99852.45
2018-11-28T01:52:13.585Z,99858.05
2018-11-28T01:54:44.732Z,99842.95
2018-11-28T01:57:17.582Z,99859.38
2018-11-28T01:59:48.406Z,99861.50
2018-11-28T02:02:19.444Z,99858.53
2018-11-28T02:04:52.547Z,99857.70
2018-11-28T02:07:24.423Z,99863.33
2018-11-28T02:09:56.668Z,99869.38
2018-11-28T02:12:27.559Z,99871.56
2018-11-28T02:14:58.413Z,99869.86
2018-11-28T02:17:31.786Z,99871.17
2018-11-28T02:20:08.688Z,99878.96
2018-11-28T02:22:39.278Z,99886.31
2018-11-28T02:25:12.010Z,99665.86
2018-11-28T02:27:55.395Z,99885.06
2018-11-28T02:30:26.068Z,99886.78
2018-11-28T02:32:57.047Z,99880.71
2018-11-28T02:35:28.919Z,99877.30
2018-11-28T02:38:01.613Z,99884.67
2018-11-28T02:40:32.513Z,99886.80
2018-11-28T02:43:08.365Z,99894.55
2018-11-28T02:45:40.019Z,99900.18
2018-11-28T02:48:14.240Z,99882.91
2018-11-28T02:50:55.696Z,99900.61
2018-11-28T02:53:28.787Z,99896.69
2018-11-28T02:55:59.687Z,99901.92
2018-11-28T02:58:31.702Z,99910.13
2018-11-28T03:01:03.863Z,99905.38
2018-11-28T03:03:34.784Z,99909.72
2018-11-28T03:06:06.205Z,99919.66
2018-11-28T03:08:38.941Z,99917.08
2018-11-28T03:11:12.531Z,99917.09
2018-11-28T03:13:45.660Z,99933.50
2018-11-28T03:16:19.637Z,99923.55
2018-11-28T03:18:50.307Z,99924.00
2018-11-28T03:21:22.965Z,99936.95
2018-11-28T03:23:54.997Z,99933.48
2018-11-28T03:26:27.994Z,99939.06
2018-11-28T03:28:59.092Z,99933.44
2018-11-28T03:31:30.159Z,99934.32
2018-11-28T03:34:01.640Z,99935.19
2018-11-28T03:36:34.646Z,99942.95
2018-11-28T03:39:09.578Z,99937.36
2018-11-28T03:41:45.015Z,99955.46
2018-11-28T03:44:15.836Z,99953.30
2018-11-28T03:46:46.094Z,99939.98
2018-11-28T03:49:17.031Z,99933.05
2018-11-28T03:51:47.859Z,99953.32
2018-11-28T03:54:18.773Z,99940.80
2018-11-28T03:56:49.396Z,99946.84
2018-11-28T03:59:23.806Z,99949.03
2018-11-28T04:01:59.672Z,99958.95
2018-11-28T04:04:34.877Z,99961.95
2018-11-28T04:07:05.942Z,99960.66
2018-11-28T04:09:37.090Z,99957.19
2018-11-28T04:12:13.658Z,99957.66
2018-11-28T04:14:53.790Z,99965.41
2018-11-28T04:17:27.012Z,99970.16
2018-11-28T04:20:01.032Z,99964.56
2018-11-28T04:22:35.125Z,99965.43
2018-11-28T04:25:09.862Z,99977.48
2018-11-28T04:27:41.230Z,99969.72
2018-11-28T04:30:17.015Z,99974.02
2018-11-28T04:32:49.723Z,99970.97
2018-11-28T04:38:16.783Z,99992.06
2018-11-28T04:40:48.764Z,99995.56
2018-11-28T04:43:19.589Z,99979.57
2018-11-28T04:45:52.287Z,99980.83
2018-11-28T04:48:25.351Z,99975.63
2018-11-28T04:50:58.402Z,99989.03
2018-11-28T04:53:32.009Z,99999.37
2018-11-28T04:56:08.025Z,99984.20
2018-11-28T04:58:50.163Z,100010.92
2018-11-28T05:01:24.190Z,100005.81
2018-11-28T05:03:55.146Z,100002.73
2018-11-28T05:07:35.963Z,100012.98
2018-11-28T05:10:41.124Z,100013.45
2018-11-28T05:13:13.235Z,100015.57
2018-11-28T05:15:46.670Z,100019.87
2018-11-28T05:18:22.100Z,100015.14
2018-11-28T05:20:55.374Z,100028.98
2018-11-28T05:23:26.563Z,100027.66
2018-11-28T05:25:58.436Z,100032.39
2018-11-28T05:28:30.386Z,100036.25
2018-11-28T05:31:01.947Z,100038.84
2018-11-28T05:33:32.788Z,100029.30
2018-11-28T05:36:05.668Z,100045.25
2018-11-28T05:38:39.371Z,100049.14
2018-11-28T05:41:10.515Z,100038.42
2018-11-28T05:43:43.054Z,100057.82
2018-11-28T05:46:14.662Z,100055.66
2018-11-28T05:48:45.320Z,100052.64
2018-11-28T05:51:15.979Z,100059.51
2018-11-28T05:53:47.034Z,100068.61
2018-11-28T05:56:19.169Z,100056.95
2018-11-28T05:58:51.299Z,100057.44
2018-11-28T06:01:21.865Z,100057.02
2018-11-28T06:03:52.664Z,100075.05
2018-11-28T06:06:23.676Z,100066.02
2018-11-28T06:08:54.182Z,100058.73
2018-11-28T06:11:25.312Z,100061.77
2018-11-28T06:13:56.016Z,100060.45
2018-11-28T06:16:28.530Z,100066.55
2018-11-28T06:18:59.833Z,100071.27
2018-11-28T06:21:34.114Z,100073.41
2018-11-28T06:24:09.754Z,100080.71
2018-11-28T06:26:40.537Z,100091.06
2018-11-28T06:29:13.944Z,100091.48
2018-11-28T06:31:44.627Z,100083.38
2018-11-28T06:34:15.151Z,100091.08
2018-11-28T06:36:45.406Z,100098.41
2018-11-28T06:39:16.207Z,100085.84
2018-11-28T06:41:46.756Z,100098.38
2018-11-28T06:44:17.562Z,100100.50
2018-11-28T06:46:48.207Z,100107.83
2018-11-28T06:49:18.740Z,100113.56
2018-11-28T06:51:49.502Z,100106.17
2018-11-28T06:54:20.119Z,100116.95
2018-11-28T06:56:51.648Z,100123.94
2018-11-28T06:59:22.462Z,100131.66
2018-11-28T07:02:00.280Z,100127.87
2018-11-28T07:04:38.589Z,100131.36
2018-11-28T07:07:09.401Z,100123.13
2018-11-28T07:09:40.230Z,100137.44
2018-11-28T07:12:11.069Z,100134.41
2018-11-28T07:14:41.747Z,100143.47
2018-11-28T07:17:13.080Z,100143.53
2018-11-28T07:19:45.902Z,100142.73
2018-11-28T07:22:16.739Z,100144.48
2018-11-28T07:24:49.911Z,100150.98
2018-11-28T07:27:24.083Z,100154.03
2018-11-28T07:29:54.940Z,100152.30
2018-11-28T07:32:25.800Z,100148.90
2018-11-28T07:34:58.951Z,100166.63
2018-11-28T07:37:32.053Z,100174.86
2018-11-28T07:40:03.221Z,100172.52
2018-11-28T07:42:33.850Z,100171.97
2018-11-28T07:45:05.197Z,100186.63
2018-11-28T07:47:38.078Z,100191.41
2018-11-28T07:50:13.147Z,100175.89
2018-11-28T07:52:45.092Z,100182.06
2018-11-28T07:55:19.805Z,100182.92
2018-11-28T07:57:53.273Z,100182.05
2018-11-28T08:00:25.871Z,100182.86
2018-11-28T08:02:59.153Z,100188.52
2018-11-28T08:05:39.543Z,100192.88
2018-11-28T08:08:11.391Z,100192.41
2018-11-28T08:10:41.700Z,100196.37
2018-11-28T08:13:13.025Z,100195.92
2018-11-28T08:15:43.409Z,100199.86
2018-11-28T08:18:13.932Z,100198.88
2018-11-28T08:20:44.785Z,100197.65
2018-11-28T08:23:15.554Z,100191.22
2018-11-28T08:25:46.156Z,100189.87
2018-11-28T08:28:19.515Z,100194.64
2018-11-28T08:30:50.822Z,100201.64
2018-11-28T08:33:25.682Z,100191.72
2018-11-28T08:35:56.956Z,100204.73
2018-11-28T08:38:29.195Z,100190.97
2018-11-28T08:41:03.567Z,100197.97
2018-11-28T08:43:35.035Z,100203.61
2018-11-28T08:46:05.828Z,100208.44
2018-11-28T08:48:36.360Z,100208.96
2018-11-28T08:51:06.805Z,100210.23
2018-11-28T08:53:37.710Z,100210.77
2018-11-28T08:56:08.303Z,100212.50
2018-11-28T08:58:38.807Z,100206.97
2018-11-28T09:01:09.311Z,100214.31
2018-11-28T09:03:40.021Z,100216.09
2018-11-28T09:06:10.997Z,100224.33
2018-11-28T09:08:41.542Z,100219.62
2018-11-28T09:11:11.869Z,100217.16
2018-11-28T09:13:42.741Z,100224.03
2018-11-28T09:16:13.266Z,100216.25
2018-11-28T09:18:44.477Z,100229.38
2018-11-28T09:21:15.456Z,100231.94
2018-11-28T09:23:46.769Z,100227.98
2018-11-28T09:26:19.246Z,100231.95
2018-11-28T09:28:50.691Z,100219.79
2018-11-28T09:31:26.451Z,100213.28
2018-11-28T09:33:59.512Z,100220.71
2018-11-28T09:36:32.276Z,100221.62
2018-11-28T09:39:06.159Z,100217.29
2018-11-28T09:41:38.250Z,100224.58
2018-11-28T09:44:10.458Z,100226.39
2018-11-28T09:46:46.515Z,100224.20
2018-11-28T09:49:19.499Z,100229.95
2018-11-28T09:51:50.612Z,100229.58
2018-11-28T09:54:22.667Z,100213.83
2018-11-28T09:56:54.298Z,100232.55
2018-11-28T09:59:28.378Z,100222.88
2018-11-28T10:02:03.511Z,100214.45
2018-11-28T10:04:39.415Z,100219.17
2018-11-28T10:07:12.693Z,100215.65
2018-11-28T10:09:43.365Z,100216.48
2018-11-28T10:12:14.339Z,100209.64
2018-11-28T10:14:45.189Z,100208.56
2018-11-28T10:17:16.079Z,100200.84
2018-11-28T10:19:46.706Z,100202.11
2018-11-28T10:22:17.445Z,100198.56
2018-11-28T10:24:48.261Z,100207.16
2018-11-28T10:27:25.854Z,100202.33
2018-11-28T10:29:56.873Z,100195.11
2018-11-28T10:32:29.675Z,100209.95
2018-11-28T10:35:02.422Z,100203.09
2018-11-28T10:37:34.641Z,100216.61
2018-11-28T10:42:59.618Z,100210.53
2018-11-28T10:48:39.110Z,100207.84
2018-11-28T10:51:10.084Z,100210.90
2018-11-28T10:53:40.883Z,100195.72
2018-11-28T10:56:11.414Z,100213.10
2018-11-28T10:58:42.288Z,100223.55
2018-11-28T11:01:18.447Z,100209.60
2018-11-28T11:04:30.943Z,100214.84
2018-11-28T11:07:08.409Z,100210.98
2018-11-28T11:09:47.862Z,100216.19
2018-11-28T11:12:24.352Z,100208.37
2018-11-28T11:14:55.753Z,100207.95
2018-11-28T11:17:32.306Z,100204.48
2018-11-28T11:20:02.988Z,100217.06
2018-11-28T11:22:33.693Z,100212.71
2018-11-28T11:25:05.070Z,100158.08
2018-11-28T11:27:35.671Z,100201.03
2018-11-28T11:30:09.527Z,100202.73
2018-11-28T11:32:40.097Z,100198.83
2018-11-28T11:35:12.640Z,100207.08
2018-11-28T11:38:01.220Z,100209.69
2018-11-28T11:40:33.080Z,100200.55
2018-11-28T11:43:08.739Z,100206.64
2018-11-28T11:45:39.882Z,100200.07
2018-11-28T11:48:11.259Z,100196.20
2018-11-28T11:50:41.798Z,100204.01
2018-11-28T11:53:12.625Z,100194.47
2018-11-28T11:55:42.979Z,100195.33
2018-11-28T11:58:13.902Z,100198.75
2018-11-28T12:00:46.444Z,100199.14
2018-11-28T12:03:18.329Z,100195.71
2018-11-28T12:05:56.708Z,100197.43
2018-11-28T12:08:29.972Z,100198.66
2018-11-28T12:11:02.207Z,100207.08
2018-11-28T12:13:33.118Z,100195.77
2018-11-28T12:16:04.069Z,100200.09
2018-11-28T12:18:34.799Z,100186.16
2018-11-28T12:21:07.448Z,100205.53
2018-11-28T12:23:39.217Z,100193.89
2018-11-28T12:26:13.119Z,100204.27
2018-11-28T12:28:45.970Z,100204.66
2018-11-28T12:31:19.620Z,100200.41
2018-11-28T12:33:51.106Z,100214.37
2018-11-28T12:36:23.537Z,100212.20
2018-11-28T12:38:55.325Z,100220.00
2018-11-28T12:41:26.899Z,100222.23
2018-11-28T12:43:57.466Z,100227.80
2018-11-28T12:46:31.788Z,100218.33
2018-11-28T12:49:07.027Z,100210.86
2018-11-28T12:51:38.205Z,100211.60
2018-11-28T12:54:14.480Z,100219.96
2018-11-28T12:56:45.236Z,100211.41
2018-11-28T12:59:15.587Z,100215.31
2018-11-28T13:01:46.521Z,100213.97
2018-11-28T13:04:22.165Z,100212.66
2018-11-28T13:06:54.022Z,100214.90
2018-11-28T13:09:26.488Z,100215.69
2018-11-28T13:12:00.077Z,100214.69
2018-11-28T13:14:34.395Z,100212.51
2018-11-28T13:17:04.818Z,100220.36
2018-11-28T13:19:35.728Z,100212.14
2018-11-28T13:22:07.188Z,100215.30
2018-11-28T13:24:39.544Z,100215.66
2018-11-28T13:27:11.311Z,100219.59
2018-11-28T13:29:44.475Z,100215.24
2018-11-28T13:32:17.898Z,100213.12
2018-11-28T13:34:48.923Z,100224.84
2018-11-28T13:37:20.765Z,100219.21
2018-11-28T13:39:52.592Z,100225.24
2018-11-28T13:42:23.573Z,100220.06
2018-11-28T13:44:56.828Z,100216.55
2018-11-28T13:47:29.685Z,100219.17
2018-11-28T13:50:00.381Z,100220.48
2018-11-28T13:52:31.423Z,100225.72
2018-11-28T13:55:37.812Z,100223.11
2018-11-28T13:57:37.807Z,100224.42
2018-11-28T14:00:11.273Z,100229.22
2018-11-28T14:02:42.140Z,100229.20
2018-11-28T14:05:27.993Z,100231.81
2018-11-28T14:08:00.577Z,100230.94
2018-11-28T14:10:31.231Z,100237.03
2018-11-28T14:13:01.797Z,100242.67
2018-11-28T14:15:42.541Z,100249.16
2018-11-28T14:18:19.074Z,100245.25
2018-11-28T14:20:51.144Z,100243.52
2018-11-28T14:23:25.588Z,100250.89
2018-11-28T14:25:59.698Z,100248.72
2018-11-28T14:28:35.621Z,100252.62
2018-11-28T14:37:22.841Z,100248.73
2018-11-28T14:39:55.751Z,100248.70
2018-11-28T14:42:26.773Z,100251.30
2018-11-28T14:44:57.293Z,100250.44
2018-11-28T14:47:27.842Z,100251.73
2018-11-28T14:49:58.365Z,100252.58
2018-11-28T14:52:28.951Z,100251.65
2018-11-28T14:55:00.070Z,100253.41
2018-11-28T14:57:31.187Z,100249.08
2018-11-28T15:00:03.457Z,100256.88
2018-11-28T15:02:35.164Z,100244.71
2018-11-28T15:05:11.203Z,100251.64
2018-11-28T15:07:42.035Z,100245.59
2018-11-28T15:10:15.076Z,100254.20
2018-11-28T15:12:46.800Z,100254.64
2018-11-28T15:15:34.855Z,100258.09
2018-11-28T15:18:05.934Z,100264.58
2018-11-28T15:20:38.988Z,100260.69
2018-11-28T15:23:12.770Z,100267.60
2018-11-28T15:25:46.058Z,100264.18
2018-11-28T15:28:19.022Z,100272.81
2018-11-28T15:30:50.202Z,100273.63
2018-11-28T15:33:23.259Z,100268.42
2018-11-28T15:35:54.114Z,100274.47
2018-11-28T15:39:27.876Z,100281.38
2018-11-28T15:42:01.827Z,100277.45
2018-11-28T15:44:39.135Z,100284.33
2018-11-28T15:47:12.481Z,100291.23
2018-11-28T15:49:45.445Z,100294.70
2018-11-28T15:52:16.127Z,100292.50
2018-11-28T15:54:47.563Z,100296.01
2018-11-28T15:57:20.038Z,100295.95
2018-11-28T15:59:51.174Z,100298.47
2018-11-28T16:02:24.602Z,100306.34
2018-11-28T16:04:56.186Z,100303.28
2018-11-28T16:07:29.181Z,100305.95
2018-11-28T16:10:05.352Z,100310.24
2018-11-28T16:12:43.890Z,100310.64
2018-11-28T16:15:26.529Z,100305.88
2018-11-28T16:17:57.134Z,100317.56
2018-11-28T16:20:30.665Z,100316.77
2018-11-28T16:23:04.185Z,100321.53
2018-11-28T16:25:40.407Z,100327.09
2018-11-28T16:28:12.469Z,100331.01
2018-11-28T16:30:46.462Z,100337.52
2018-11-28T16:33:18.447Z,100330.12
2018-11-28T16:35:54.914Z,100339.66
2018-11-28T16:38:25.995Z,100340.95
2018-11-28T16:40:59.412Z,100340.06
2018-11-28T16:43:32.510Z,100307.94
2018-11-28T16:46:04.404Z,100343.59
2018-11-28T16:48:38.414Z,100341.38
2018-11-28T16:51:09.161Z,100348.72
2018-11-28T16:53:40.788Z,100348.36
2018-11-28T16:56:13.565Z,100356.08
2018-11-28T16:58:46.363Z,100350.90
2018-11-28T17:01:17.366Z,100351.27
2018-11-28T17:03:52.969Z,100360.77
2018-11-28T17:06:26.625Z,100364.60
2018-11-28T17:08:58.710Z,100360.66
2018-11-28T17:11:30.551Z,100362.52
2018-11-28T17:14:10.953Z,100371.48
2018-11-28T17:16:44.972Z,100368.44
2018-11-28T17:19:16.545Z,100376.68
2018-11-28T17:21:48.917Z,100373.97
2018-11-28T17:24:22.021Z,100374.83
2018-11-28T17:26:57.729Z,100373.58
2018-11-28T17:29:28.671Z,100380.41
2018-11-28T17:31:59.399Z,100380.96
2018-11-28T17:34:30.699Z,100382.19
2018-11-28T17:37:03.742Z,100383.78
2018-11-28T17:39:37.443Z,100386.97
2018-11-28T17:42:08.708Z,100396.18
2018-11-28T17:44:41.698Z,100392.28
2018-11-28T17:47:12.303Z,100391.83
2018-11-28T17:49:54.771Z,100398.17
2018-11-28T17:52:27.091Z,100396.02
2018-11-28T17:54:58.618Z,100408.14
2018-11-28T17:57:29.466Z,100406.09
2018-11-28T18:00:00.053Z,100414.98
2018-11-28T18:02:30.706Z,100414.11
2018-11-28T18:05:04.005Z,100411.20
2018-11-28T18:07:39.207Z,100408.45
2018-11-28T18:10:27.332Z,100416.19
2018-11-28T18:13:12.661Z,100409.49
2018-11-28T18:15:45.814Z,100416.84
2018-11-28T18:18:21.309Z,100410.73
2018-11-28T18:20:57.086Z,100419.69
2018-11-28T18:23:28.720Z,100412.14
2018-11-28T18:26:00.494Z,100416.39
2018-11-28T18:28:31.197Z,100418.62
2018-11-28T18:31:02.359Z,100422.33
2018-11-28T18:33:35.036Z,100426.94
2018-11-28T18:36:05.850Z,100434.67
2018-11-28T18:38:39.968Z,100437.16
2018-11-28T18:41:13.100Z,100436.94
2018-11-28T18:43:44.109Z,100437.27
2018-11-28T18:46:15.073Z,100439.53
2018-11-28T18:48:49.044Z,100446.86
2018-11-28T18:51:19.990Z,100447.33
2018-11-28T18:53:52.217Z,100443.91
2018-11-28T18:56:24.072Z,100444.48
2018-11-28T18:58:57.007Z,100440.77
2018-11-28T19:01:30.053Z,100443.11
2018-11-28T19:04:01.163Z,100437.97
2018-11-28T19:06:36.498Z,100439.67
2018-11-28T19:09:10.728Z,100440.15
2018-11-28T19:11:46.756Z,100454.77
2018-11-28T19:14:17.921Z,100451.27
2018-11-28T19:16:57.098Z,100455.16
2018-11-28T19:19:30.347Z,100453.96
2018-11-28T19:22:04.298Z,100460.42
2018-11-28T19:24:35.399Z,100452.18
2018-11-28T19:27:09.853Z,100456.36
2018-11-28T19:29:42.209Z,100459.24
2018-11-28T19:32:13.479Z,100459.55
2018-11-28T19:34:46.335Z,100454.02
2018-11-28T19:37:18.194Z,100455.52
2018-11-28T19:39:53.942Z,100461.09
2018-11-28T19:42:25.365Z,100466.84
2018-11-28T19:44:58.421Z,100464.51
2018-11-28T19:47:30.892Z,100465.36
2018-11-28T19:50:26.982Z,100473.52
2018-11-28T19:52:58.866Z,100477.61
2018-11-28T19:55:39.103Z,100476.52
2018-11-28T19:58:12.041Z,100477.34
2018-11-28T20:00:46.690Z,100484.53
2018-11-28T20:03:19.021Z,100482.80
2018-11-28T20:05:59.948Z,100479.45
2018-11-28T20:08:32.574Z,100486.75
2018-11-28T20:11:07.171Z,100493.49
2018-11-28T20:13:40.473Z,100484.77
2018-11-28T20:18:49.023Z,100482.38
2018-11-28T20:21:21.415Z,100488.98
2018-11-28T20:23:53.848Z,100483.19
2018-11-28T20:26:25.821Z,100488.36
2018-11-28T20:29:07.923Z,100491.28
2018-11-28T20:31:44.219Z,100494.28
2018-11-28T20:34:16.533Z,100497.59
2018-11-28T20:36:47.819Z,100489.59
2018-11-28T20:39:20.313Z,100489.62
2018-11-28T20:41:51.736Z,100492.08
2018-11-28T20:44:23.768Z,100492.20
2018-11-28T20:47:04.164Z,100491.09
2018-11-28T20:49:32.916Z,100487.17
2018-11-28T20:52:03.742Z,100492.64
2018-11-28T20:54:35.027Z,100496.73
2018-11-28T20:57:08.155Z,100497.47
2018-11-28T20:59:44.857Z,100492.14
2018-11-28T21:02:15.672Z,100484.17
2018-11-28T21:04:46.771Z,100487.63
2018-11-28T21:07:17.397Z,100494.15
2018-11-28T21:09:54.079Z,100494.90
2018-11-28T21:12:29.720Z,100485.63
2018-11-28T21:15:01.673Z,100494.63
2018-11-28T21:17:34.081Z,100495.92
2018-11-28T21:20:13.287Z,100496.66
2018-11-28T21:22:46.326Z,100500.53
2018-11-28T21:25:23.792Z,100497.20
2018-11-28T21:28:06.642Z,100503.95
2018-11-28T21:30:38.236Z,100498.30
2018-11-28T21:33:13.334Z,100498.28
2018-11-28T21:35:48.798Z,100497.19
2018-11-28T21:38:20.331Z,100496.30
2018-11-28T21:40:53.165Z,100492.08
2018-11-28T21:43:23.968Z,100489.31
2018-11-28T21:45:57.528Z,100486.77
2018-11-28T21:48:31.422Z,100497.02
2018-11-28T21:51:03.889Z,100491.66
2018-11-28T21:53:34.961Z,100494.53
2018-11-28T21:56:08.099Z,100497.22
2018-11-28T21:58:40.878Z,100496.64
2018-11-28T22:01:13.089Z,100495.11
2018-11-28T22:03:43.474Z,100485.20
2018-11-28T22:06:20.667Z,100493.34
2018-11-28T22:08:53.428Z,100498.16
2018-11-28T22:11:29.824Z,100500.81
2018-11-28T22:14:01.872Z,100503.77
2018-11-28T22:16:32.865Z,100503.26
2018-11-28T22:19:06.550Z,100510.28
2018-11-28T22:21:40.050Z,100499.00
2018-11-28T22:24:14.266Z,100509.88
2018-11-28T22:26:47.823Z,100502.81
2018-11-28T22:29:23.772Z,100500.14
2018-11-28T22:31:54.478Z,100510.97
2018-11-28T22:34:25.162Z,100502.97
2018-11-28T22:36:57.989Z,100505.84
2018-11-28T22:39:32.835Z,100504.64
2018-11-28T22:42:05.465Z,100509.48
2018-11-28T22:44:36.999Z,100517.63
2018-11-28T22:47:09.801Z,100514.75
2018-11-28T22:49:43.202Z,100516.45
2018-11-28T22:52:16.790Z,100518.53
2018-11-28T22:54:48.215Z,100525.47
2018-11-28T22:57:20.612Z,100523.22
2018-11-28T22:59:54.867Z,100514.58
2018-11-28T23:02:39.467Z,100509.72
2018-11-28T23:05:14.112Z,100510.06
2018-11-28T23:07:45.362Z,100512.03
2018-11-28T23:10:26.807Z,100509.25
2018-11-28T23:12:59.165Z,100505.45
2018-11-28T23:15:31.277Z,100504.23
2018-11-28T23:18:07.890Z,100506.38
2018-11-28T23:20:40.370Z,100500.67
2018-11-28T23:23:14.187Z,100512.80
2018-11-28T23:25:45.459Z,100513.90
2018-11-28T23:28:18.315Z,100515.99
2018-11-28T23:30:49.275Z,100523.88
2018-11-28T23:33:20.576Z,100522.21
2018-11-28T23:35:53.407Z,100520.95
2018-11-28T23:38:24.284Z,100519.49
2018-11-28T23:40:57.004Z,100529.45
2018-11-28T23:43:27.503Z,100528.89
2018-11-28T23:45:58.018Z,100519.96
2018-11-28T23:48:28.859Z,100527.82
2018-11-28T23:50:59.654Z,100519.23
2018-11-28T23:53:33.014Z,100522.36
2018-11-28T23:56:06.569Z,100514.87
2018-11-28T23:58:40.323Z,100513.11
